sensor_id;sensor_type;location;lat;lon;timestamp;temperature;humidity
28608;DHT22;15802;45.654;13.804;2023-04-28T00:00:48;11.30;99.90
28608;DHT22;15802;45.654;13.804;2023-04-28T00:03:14;11.40;99.90
28608;DHT22;15802;45.654;13.804;2023-04-28T00:05:43;11.40;99.90
28608;DHT22;15802;45.654;13.804;2023-04-28T00:08:09;11.40;99.90
28608;DHT22;15802;45.654;13.804;2023-04-28T00:10:35;11.40;99.90
28608;DHT22;15802;45.654;13.804;2023-04-28T00:13:00;11.50;99.90
28608;DHT22;15802;45.654;13.804;2023-04-28T00:15:26;11.40;99.90
28608;DHT22;15802;45.654;13.804;2023-04-28T00:17:53;11.40;99.90
28608;DHT22;15802;45.654;13.804;2023-04-28T00:20:19;11.40;99.90
28608;DHT22;15802;45.654;13.804;2023-04-28T00:22:46;11.40;99.90
28608;DHT22;15802;45.654;13.804;2023-04-28T00:25:13;11.30;99.90
28608;DHT22;15802;45.654;13.804;2023-04-28T00:27:41;11.40;99.90
28608;DHT22;15802;45.654;13.804;2023-04-28T00:30:07;11.30;99.90
28608;DHT22;15802;45.654;13.804;2023-04-28T00:32:33;11.40;99.90
28608;DHT22;15802;45.654;13.804;2023-04-28T00:34:58;11.40;99.90
28608;DHT22;15802;45.654;13.804;2023-04-28T00:37:24;11.40;99.90
28608;DHT22;15802;45.654;13.804;2023-04-28T00:39:53;11.40;99.90
28608;DHT22;15802;45.654;13.804;2023-04-28T00:42:19;11.30;99.90
28608;DHT22;15802;45.654;13.804;2023-04-28T00:47:36;11.30;99.90
28608;DHT22;15802;45.654;13.804;2023-04-28T00:50:02;11.40;99.90
28608;DHT22;15802;45.654;13.804;2023-04-28T00:52:30;11.30;99.90
28608;DHT22;15802;45.654;13.804;2023-04-28T00:54:56;11.30;99.90
28608;DHT22;15802;45.654;13.804;2023-04-28T00:57:22;11.30;99.90
28608;DHT22;15802;45.654;13.804;2023-04-28T00:59:51;11.30;99.90
28608;DHT22;15802;45.654;13.804;2023-04-28T01:02:17;11.30;99.90
28608;DHT22;15802;45.654;13.804;2023-04-28T01:04:44;11.30;99.90
28608;DHT22;15802;45.654;13.804;2023-04-28T01:07:10;11.30;99.90
28608;DHT22;15802;45.654;13.804;2023-04-28T01:09:36;11.20;99.90
28608;DHT22;15802;45.654;13.804;2023-04-28T01:12:02;11.20;99.90
28608;DHT22;15802;45.654;13.804;2023-04-28T01:14:28;11.10;99.90
28608;DHT22;15802;45.654;13.804;2023-04-28T01:16:53;11.10;99.90
28608;DHT22;15802;45.654;13.804;2023-04-28T01:19:20;11.10;99.90
28608;DHT22;15802;45.654;13.804;2023-04-28T01:21:47;11.10;99.90
28608;DHT22;15802;45.654;13.804;2023-04-28T01:24:13;11.10;99.90
28608;DHT22;15802;45.654;13.804;2023-04-28T01:26:39;11.10;99.90
28608;DHT22;15802;45.654;13.804;2023-04-28T01:29:05;11.10;99.90
28608;DHT22;15802;45.654;13.804;2023-04-28T01:31:30;11.10;99.90
28608;DHT22;15802;45.654;13.804;2023-04-28T01:33:56;11.00;99.90
28608;DHT22;15802;45.654;13.804;2023-04-28T01:36:22;11.00;99.90
28608;DHT22;15802;45.654;13.804;2023-04-28T01:38:48;11.10;99.90
28608;DHT22;15802;45.654;13.804;2023-04-28T01:41:14;11.10;99.90
28608;DHT22;15802;45.654;13.804;2023-04-28T01:43:40;11.00;99.90
28608;DHT22;15802;45.654;13.804;2023-04-28T01:46:05;11.10;99.90
28608;DHT22;15802;45.654;13.804;2023-04-28T01:48:31;11.00;99.90
28608;DHT22;15802;45.654;13.804;2023-04-28T01:50:57;11.00;99.90
28608;DHT22;15802;45.654;13.804;2023-04-28T01:53:23;10.90;99.90
28608;DHT22;15802;45.654;13.804;2023-04-28T01:55:49;11.00;99.90
28608;DHT22;15802;45.654;13.804;2023-04-28T01:58:16;11.00;99.90
28608;DHT22;15802;45.654;13.804;2023-04-28T02:00:41;11.00;99.90
28608;DHT22;15802;45.654;13.804;2023-04-28T02:03:07;11.00;99.90
28608;DHT22;15802;45.654;13.804;2023-04-28T02:05:33;11.00;99.90
28608;DHT22;15802;45.654;13.804;2023-04-28T02:07:58;10.90;99.90
28608;DHT22;15802;45.654;13.804;2023-04-28T02:10:24;11.00;99.90
28608;DHT22;15802;45.654;13.804;2023-04-28T02:12:51;11.00;99.90
28608;DHT22;15802;45.654;13.804;2023-04-28T02:15:16;11.00;99.90
28608;DHT22;15802;45.654;13.804;2023-04-28T02:17:42;11.00;99.90
28608;DHT22;15802;45.654;13.804;2023-04-28T02:20:08;11.00;99.90
28608;DHT22;15802;45.654;13.804;2023-04-28T02:22:34;11.00;99.90
28608;DHT22;15802;45.654;13.804;2023-04-28T02:24:59;11.00;99.90
28608;DHT22;15802;45.654;13.804;2023-04-28T02:27:25;11.00;99.90
28608;DHT22;15802;45.654;13.804;2023-04-28T02:29:51;11.10;99.90
28608;DHT22;15802;45.654;13.804;2023-04-28T02:32:17;11.10;99.90
28608;DHT22;15802;45.654;13.804;2023-04-28T02:34:42;11.10;99.90
28608;DHT22;15802;45.654;13.804;2023-04-28T02:37:08;11.10;99.90
28608;DHT22;15802;45.654;13.804;2023-04-28T02:39:34;11.20;99.90
28608;DHT22;15802;45.654;13.804;2023-04-28T02:42:00;11.20;99.90
28608;DHT22;15802;45.654;13.804;2023-04-28T02:44:25;11.20;99.90
28608;DHT22;15802;45.654;13.804;2023-04-28T02:46:51;11.10;99.90
28608;DHT22;15802;45.654;13.804;2023-04-28T02:49:17;11.10;99.90
28608;DHT22;15802;45.654;13.804;2023-04-28T02:51:43;11.10;99.90
28608;DHT22;15802;45.654;13.804;2023-04-28T02:54:09;11.00;99.90
28608;DHT22;15802;45.654;13.804;2023-04-28T02:56:36;10.90;99.90
28608;DHT22;15802;45.654;13.804;2023-04-28T02:59:01;10.90;99.90
28608;DHT22;15802;45.654;13.804;2023-04-28T03:01:28;10.90;99.90
28608;DHT22;15802;45.654;13.804;2023-04-28T03:03:54;10.90;99.90
28608;DHT22;15802;45.654;13.804;2023-04-28T03:06:19;10.90;99.90
28608;DHT22;15802;45.654;13.804;2023-04-28T03:08:45;10.90;99.90
28608;DHT22;15802;45.654;13.804;2023-04-28T03:11:11;10.90;99.90
28608;DHT22;15802;45.654;13.804;2023-04-28T03:13:37;10.90;99.90
28608;DHT22;15802;45.654;13.804;2023-04-28T03:16:02;11.00;99.90
28608;DHT22;15802;45.654;13.804;2023-04-28T03:18:28;10.90;99.90
28608;DHT22;15802;45.654;13.804;2023-04-28T03:20:54;11.00;99.90
28608;DHT22;15802;45.654;13.804;2023-04-28T03:23:20;11.00;99.90
28608;DHT22;15802;45.654;13.804;2023-04-28T03:25:45;11.00;99.90
28608;DHT22;15802;45.654;13.804;2023-04-28T03:28:11;11.00;99.90
28608;DHT22;15802;45.654;13.804;2023-04-28T03:30:37;11.00;99.90
28608;DHT22;15802;45.654;13.804;2023-04-28T03:33:03;11.00;99.90
28608;DHT22;15802;45.654;13.804;2023-04-28T03:35:29;11.00;99.90
28608;DHT22;15802;45.654;13.804;2023-04-28T03:37:55;11.00;99.90
28608;DHT22;15802;45.654;13.804;2023-04-28T03:40:21;11.00;99.90
28608;DHT22;15802;45.654;13.804;2023-04-28T03:42:49;11.00;99.90
28608;DHT22;15802;45.654;13.804;2023-04-28T03:45:14;11.00;99.90
28608;DHT22;15802;45.654;13.804;2023-04-28T03:47:41;11.00;99.90
28608;DHT22;15802;45.654;13.804;2023-04-28T03:50:06;11.00;99.90
28608;DHT22;15802;45.654;13.804;2023-04-28T03:52:32;11.00;99.90
28608;DHT22;15802;45.654;13.804;2023-04-28T03:54:58;11.00;99.90
28608;DHT22;15802;45.654;13.804;2023-04-28T03:57:40;10.90;99.90
28608;DHT22;15802;45.654;13.804;2023-04-28T04:05:51;11.10;99.90
28608;DHT22;15802;45.654;13.804;2023-04-28T04:08:18;11.10;99.90
28608;DHT22;15802;45.654;13.804;2023-04-28T04:10:44;11.10;99.90
28608;DHT22;15802;45.654;13.804;2023-04-28T04:13:10;11.10;99.90
28608;DHT22;15802;45.654;13.804;2023-04-28T04:15:41;11.10;99.90
28608;DHT22;15802;45.654;13.804;2023-04-28T04:18:13;11.10;99.90
28608;DHT22;15802;45.654;13.804;2023-04-28T04:20:39;11.10;99.90
28608;DHT22;15802;45.654;13.804;2023-04-28T04:23:04;11.10;99.90
28608;DHT22;15802;45.654;13.804;2023-04-28T04:25:30;11.10;99.90
28608;DHT22;15802;45.654;13.804;2023-04-28T04:27:57;11.10;99.90
28608;DHT22;15802;45.654;13.804;2023-04-28T04:30:23;11.10;99.90
28608;DHT22;15802;45.654;13.804;2023-04-28T04:32:48;11.20;99.90
28608;DHT22;15802;45.654;13.804;2023-04-28T04:35:14;11.10;99.90
28608;DHT22;15802;45.654;13.804;2023-04-28T04:37:40;11.20;99.90
28608;DHT22;15802;45.654;13.804;2023-04-28T04:40:06;11.20;99.90
28608;DHT22;15802;45.654;13.804;2023-04-28T04:42:33;11.20;99.90
28608;DHT22;15802;45.654;13.804;2023-04-28T04:45:01;11.30;99.90
28608;DHT22;15802;45.654;13.804;2023-04-28T04:47:27;11.30;99.90
28608;DHT22;15802;45.654;13.804;2023-04-28T04:49:53;11.40;99.90
28608;DHT22;15802;45.654;13.804;2023-04-28T04:52:18;11.40;99.90
28608;DHT22;15802;45.654;13.804;2023-04-28T04:54:44;11.40;99.90
28608;DHT22;15802;45.654;13.804;2023-04-28T04:57:10;11.50;99.90
28608;DHT22;15802;45.654;13.804;2023-04-28T04:59:39;11.50;99.90
28608;DHT22;15802;45.654;13.804;2023-04-28T05:02:05;11.60;99.90
28608;DHT22;15802;45.654;13.804;2023-04-28T05:04:31;11.60;99.90
28608;DHT22;15802;45.654;13.804;2023-04-28T05:06:56;11.60;99.90
28608;DHT22;15802;45.654;13.804;2023-04-28T05:09:22;11.60;99.90
28608;DHT22;15802;45.654;13.804;2023-04-28T05:11:51;11.70;99.90
28608;DHT22;15802;45.654;13.804;2023-04-28T05:14:17;11.70;99.90
28608;DHT22;15802;45.654;13.804;2023-04-28T05:16:42;11.70;99.90
28608;DHT22;15802;45.654;13.804;2023-04-28T05:19:11;11.80;99.90
28608;DHT22;15802;45.654;13.804;2023-04-28T05:21:42;11.90;99.90
28608;DHT22;15802;45.654;13.804;2023-04-28T05:26:42;12.00;99.90
28608;DHT22;15802;45.654;13.804;2023-04-28T05:29:07;12.10;99.90
28608;DHT22;15802;45.654;13.804;2023-04-28T05:31:33;12.20;99.90
28608;DHT22;15802;45.654;13.804;2023-04-28T05:34:02;12.20;99.90
28608;DHT22;15802;45.654;13.804;2023-04-28T05:36:27;12.30;99.90
28608;DHT22;15802;45.654;13.804;2023-04-28T05:38:56;12.40;99.90
28608;DHT22;15802;45.654;13.804;2023-04-28T05:41:22;12.40;99.90
28608;DHT22;15802;45.654;13.804;2023-04-28T05:43:52;12.40;99.90
28608;DHT22;15802;45.654;13.804;2023-04-28T05:46:18;12.40;99.90
28608;DHT22;15802;45.654;13.804;2023-04-28T05:48:46;12.50;99.90
28608;DHT22;15802;45.654;13.804;2023-04-28T05:51:14;12.50;99.90
28608;DHT22;15802;45.654;13.804;2023-04-28T05:53:40;12.60;99.90
28608;DHT22;15802;45.654;13.804;2023-04-28T05:56:06;12.70;99.90
28608;DHT22;15802;45.654;13.804;2023-04-28T05:58:32;12.90;99.90
28608;DHT22;15802;45.654;13.804;2023-04-28T06:00:58;12.90;99.90
28608;DHT22;15802;45.654;13.804;2023-04-28T06:03:26;12.90;99.90
28608;DHT22;15802;45.654;13.804;2023-04-28T06:05:51;13.00;99.90
28608;DHT22;15802;45.654;13.804;2023-04-28T06:14:01;13.30;99.90
28608;DHT22;15802;45.654;13.804;2023-04-28T06:19:39;13.50;99.90
28608;DHT22;15802;45.654;13.804;2023-04-28T06:28:46;13.70;99.90
28608;DHT22;15802;45.654;13.804;2023-04-28T06:31:14;13.90;99.90
28608;DHT22;15802;45.654;13.804;2023-04-28T06:33:40;14.00;99.90
28608;DHT22;15802;45.654;13.804;2023-04-28T06:36:11;14.10;99.90
28608;DHT22;15802;45.654;13.804;2023-04-28T06:38:39;14.20;99.90
28608;DHT22;15802;45.654;13.804;2023-04-28T06:41:05;14.40;99.90
28608;DHT22;15802;45.654;13.804;2023-04-28T06:43:31;14.60;99.90
28608;DHT22;15802;45.654;13.804;2023-04-28T06:45:57;14.70;99.90
28608;DHT22;15802;45.654;13.804;2023-04-28T06:48:26;14.90;99.90
28608;DHT22;15802;45.654;13.804;2023-04-28T06:50:54;15.10;99.90
28608;DHT22;15802;45.654;13.804;2023-04-28T06:53:22;15.30;99.90
28608;DHT22;15802;45.654;13.804;2023-04-28T06:55:50;15.60;99.90
28608;DHT22;15802;45.654;13.804;2023-04-28T06:58:16;15.60;99.90
28608;DHT22;15802;45.654;13.804;2023-04-28T07:00:42;15.80;99.90
28608;DHT22;15802;45.654;13.804;2023-04-28T07:03:08;15.80;99.90
28608;DHT22;15802;45.654;13.804;2023-04-28T07:05:33;15.90;99.90
28608;DHT22;15802;45.654;13.804;2023-04-28T07:08:00;16.10;99.90
28608;DHT22;15802;45.654;13.804;2023-04-28T07:10:26;16.30;99.90
28608;DHT22;15802;45.654;13.804;2023-04-28T07:12:52;16.30;99.90
28608;DHT22;15802;45.654;13.804;2023-04-28T07:15:18;16.40;99.90
28608;DHT22;15802;45.654;13.804;2023-04-28T07:17:43;16.60;99.90
28608;DHT22;15802;45.654;13.804;2023-04-28T07:20:09;16.70;99.90
28608;DHT22;15802;45.654;13.804;2023-04-28T07:22:35;16.80;99.90
28608;DHT22;15802;45.654;13.804;2023-04-28T07:25:00;17.00;99.90
28608;DHT22;15802;45.654;13.804;2023-04-28T07:27:26;17.10;99.90
28608;DHT22;15802;45.654;13.804;2023-04-28T07:29:52;17.20;99.90
28608;DHT22;15802;45.654;13.804;2023-04-28T07:32:17;17.50;99.90
28608;DHT22;15802;45.654;13.804;2023-04-28T07:34:43;17.60;99.90
28608;DHT22;15802;45.654;13.804;2023-04-28T07:37:09;17.70;99.90
28608;DHT22;15802;45.654;13.804;2023-04-28T07:39:36;17.70;99.90
28608;DHT22;15802;45.654;13.804;2023-04-28T07:42:03;17.80;99.90
28608;DHT22;15802;45.654;13.804;2023-04-28T07:44:29;17.90;99.90
28608;DHT22;15802;45.654;13.804;2023-04-28T07:46:55;17.90;99.90
28608;DHT22;15802;45.654;13.804;2023-04-28T07:49:27;18.00;99.90
28608;DHT22;15802;45.654;13.804;2023-04-28T07:51:53;18.00;99.90
28608;DHT22;15802;45.654;13.804;2023-04-28T07:54:20;18.00;99.90
28608;DHT22;15802;45.654;13.804;2023-04-28T07:56:45;18.00;99.90
28608;DHT22;15802;45.654;13.804;2023-04-28T07:59:11;18.00;99.90
28608;DHT22;15802;45.654;13.804;2023-04-28T08:01:39;18.00;99.90
28608;DHT22;15802;45.654;13.804;2023-04-28T08:04:10;18.00;99.90
28608;DHT22;15802;45.654;13.804;2023-04-28T08:06:35;18.10;99.90
28608;DHT22;15802;45.654;13.804;2023-04-28T08:09:02;18.10;99.90
28608;DHT22;15802;45.654;13.804;2023-04-28T08:11:30;18.10;99.90
28608;DHT22;15802;45.654;13.804;2023-04-28T08:13:56;18.10;99.90
28608;DHT22;15802;45.654;13.804;2023-04-28T08:16:25;18.10;99.90
28608;DHT22;15802;45.654;13.804;2023-04-28T08:18:51;18.10;99.90
28608;DHT22;15802;45.654;13.804;2023-04-28T08:21:19;18.00;99.90
28608;DHT22;15802;45.654;13.804;2023-04-28T08:23:45;17.90;99.90
28608;DHT22;15802;45.654;13.804;2023-04-28T08:26:13;17.80;99.90
28608;DHT22;15802;45.654;13.804;2023-04-28T08:28:41;17.70;99.90
28608;DHT22;15802;45.654;13.804;2023-04-28T08:31:09;17.50;99.90
28608;DHT22;15802;45.654;13.804;2023-04-28T08:33:35;17.40;99.90
28608;DHT22;15802;45.654;13.804;2023-04-28T08:36:01;17.20;99.90
28608;DHT22;15802;45.654;13.804;2023-04-28T08:38:27;17.20;99.90
28608;DHT22;15802;45.654;13.804;2023-04-28T08:40:53;17.00;99.90
28608;DHT22;15802;45.654;13.804;2023-04-28T08:43:19;17.00;99.90
28608;DHT22;15802;45.654;13.804;2023-04-28T08:45:45;16.90;99.90
28608;DHT22;15802;45.654;13.804;2023-04-28T08:48:19;16.80;99.90
28608;DHT22;15802;45.654;13.804;2023-04-28T08:50:51;16.70;99.90
28608;DHT22;15802;45.654;13.804;2023-04-28T08:53:20;16.50;99.90
28608;DHT22;15802;45.654;13.804;2023-04-28T08:55:46;16.40;99.90
28608;DHT22;15802;45.654;13.804;2023-04-28T08:58:12;16.30;99.90
28608;DHT22;15802;45.654;13.804;2023-04-28T09:00:38;16.30;99.90
28608;DHT22;15802;45.654;13.804;2023-04-28T09:03:04;16.30;99.90
28608;DHT22;15802;45.654;13.804;2023-04-28T09:05:30;16.30;99.90
28608;DHT22;15802;45.654;13.804;2023-04-28T09:07:56;16.40;99.90
28608;DHT22;15802;45.654;13.804;2023-04-28T09:10:23;16.40;99.90
28608;DHT22;15802;45.654;13.804;2023-04-28T09:12:50;16.50;99.90
28608;DHT22;15802;45.654;13.804;2023-04-28T09:15:33;16.50;99.90
28608;DHT22;15802;45.654;13.804;2023-04-28T09:18:00;16.60;99.90
28608;DHT22;15802;45.654;13.804;2023-04-28T09:20:29;16.70;99.90
28608;DHT22;15802;45.654;13.804;2023-04-28T09:22:55;16.60;99.90
28608;DHT22;15802;45.654;13.804;2023-04-28T09:25:33;16.60;99.90
28608;DHT22;15802;45.654;13.804;2023-04-28T09:28:02;16.60;99.90
28608;DHT22;15802;45.654;13.804;2023-04-28T09:30:44;16.60;99.90
28608;DHT22;15802;45.654;13.804;2023-04-28T09:33:09;16.50;99.90
28608;DHT22;15802;45.654;13.804;2023-04-28T09:35:38;16.50;99.90
28608;DHT22;15802;45.654;13.804;2023-04-28T09:38:04;16.40;99.90
28608;DHT22;15802;45.654;13.804;2023-04-28T09:40:29;16.30;99.90
28608;DHT22;15802;45.654;13.804;2023-04-28T09:42:55;16.10;99.90
28608;DHT22;15802;45.654;13.804;2023-04-28T09:45:21;16.10;99.90
28608;DHT22;15802;45.654;13.804;2023-04-28T09:47:47;16.10;99.90
28608;DHT22;15802;45.654;13.804;2023-04-28T09:50:13;16.10;99.90
28608;DHT22;15802;45.654;13.804;2023-04-28T09:52:40;16.10;99.90
28608;DHT22;15802;45.654;13.804;2023-04-28T09:55:06;16.20;99.90
28608;DHT22;15802;45.654;13.804;2023-04-28T09:57:33;16.30;99.90
28608;DHT22;15802;45.654;13.804;2023-04-28T10:00:00;16.40;99.90
28608;DHT22;15802;45.654;13.804;2023-04-28T10:02:26;16.30;99.90
28608;DHT22;15802;45.654;13.804;2023-04-28T10:04:51;16.40;99.90
28608;DHT22;15802;45.654;13.804;2023-04-28T10:07:25;16.40;99.90
28608;DHT22;15802;45.654;13.804;2023-04-28T10:09:51;16.50;99.90
28608;DHT22;15802;45.654;13.804;2023-04-28T10:12:17;16.40;99.90
28608;DHT22;15802;45.654;13.804;2023-04-28T10:14:43;16.40;99.90
28608;DHT22;15802;45.654;13.804;2023-04-28T10:17:14;16.40;99.90
28608;DHT22;15802;45.654;13.804;2023-04-28T10:19:48;16.30;99.90
28608;DHT22;15802;45.654;13.804;2023-04-28T10:28:07;16.10;99.90
28608;DHT22;15802;45.654;13.804;2023-04-28T10:31:09;16.20;99.90
28608;DHT22;15802;45.654;13.804;2023-04-28T10:33:55;16.10;99.90
28608;DHT22;15802;45.654;13.804;2023-04-28T10:41:37;15.70;99.90
28608;DHT22;15802;45.654;13.804;2023-04-28T10:50:05;15.60;99.90
28608;DHT22;15802;45.654;13.804;2023-04-28T10:52:47;15.60;99.90
28608;DHT22;15802;45.654;13.804;2023-04-28T10:55:29;15.60;99.90
28608;DHT22;15802;45.654;13.804;2023-04-28T11:00:42;15.70;99.90
28608;DHT22;15802;45.654;13.804;2023-04-28T11:08:39;16.20;99.90
28608;DHT22;15802;45.654;13.804;2023-04-28T11:11:11;16.30;99.90
28608;DHT22;15802;45.654;13.804;2023-04-28T11:13:39;16.50;99.90
28608;DHT22;15802;45.654;13.804;2023-04-28T11:16:05;16.70;99.90
28608;DHT22;15802;45.654;13.804;2023-04-28T11:18:37;17.00;99.90
28608;DHT22;15802;45.654;13.804;2023-04-28T11:21:10;17.20;99.90
28608;DHT22;15802;45.654;13.804;2023-04-28T11:23:35;17.40;99.90
28608;DHT22;15802;45.654;13.804;2023-04-28T11:26:05;17.60;99.90
28608;DHT22;15802;45.654;13.804;2023-04-28T11:28:31;17.70;99.90
28608;DHT22;15802;45.654;13.804;2023-04-28T11:31:12;17.80;99.90
28608;DHT22;15802;45.654;13.804;2023-04-28T11:33:38;18.00;99.90
28608;DHT22;15802;45.654;13.804;2023-04-28T11:36:05;18.50;99.90
28608;DHT22;15802;45.654;13.804;2023-04-28T11:38:47;18.90;99.90
28608;DHT22;15802;45.654;13.804;2023-04-28T11:41:13;19.20;99.90
28608;DHT22;15802;45.654;13.804;2023-04-28T11:43:39;19.50;99.90
28608;DHT22;15802;45.654;13.804;2023-04-28T11:48:45;19.70;99.90
28608;DHT22;15802;45.654;13.804;2023-04-28T11:51:28;19.50;99.90
28608;DHT22;15802;45.654;13.804;2023-04-28T11:54:11;19.50;99.90
28608;DHT22;15802;45.654;13.804;2023-04-28T11:56:42;19.60;99.90
28608;DHT22;15802;45.654;13.804;2023-04-28T11:59:09;19.60;99.90
28608;DHT22;15802;45.654;13.804;2023-04-28T12:01:44;19.50;99.90
28608;DHT22;15802;45.654;13.804;2023-04-28T12:04:09;19.50;99.90
28608;DHT22;15802;45.654;13.804;2023-04-28T12:06:37;19.60;99.90
28608;DHT22;15802;45.654;13.804;2023-04-28T12:09:13;19.60;99.90
28608;DHT22;15802;45.654;13.804;2023-04-28T12:11:50;19.40;99.90
28608;DHT22;15802;45.654;13.804;2023-04-28T12:14:19;19.50;99.90
28608;DHT22;15802;45.654;13.804;2023-04-28T12:16:45;19.80;99.90
28608;DHT22;15802;45.654;13.804;2023-04-28T12:19:13;20.00;99.90
28608;DHT22;15802;45.654;13.804;2023-04-28T12:21:39;20.00;99.90
28608;DHT22;15802;45.654;13.804;2023-04-28T12:24:13;19.90;99.90
28608;DHT22;15802;45.654;13.804;2023-04-28T12:26:39;19.90;99.90
28608;DHT22;15802;45.654;13.804;2023-04-28T12:31:50;19.60;99.90
28608;DHT22;15802;45.654;13.804;2023-04-28T12:34:17;19.40;99.90
28608;DHT22;15802;45.654;13.804;2023-04-28T12:36:43;19.40;99.90
28608;DHT22;15802;45.654;13.804;2023-04-28T12:39:12;19.30;99.90
28608;DHT22;15802;45.654;13.804;2023-04-28T12:41:38;19.30;99.90
28608;DHT22;15802;45.654;13.804;2023-04-28T12:44:04;19.30;99.90
28608;DHT22;15802;45.654;13.804;2023-04-28T12:46:29;19.40;99.90
28608;DHT22;15802;45.654;13.804;2023-04-28T12:48:55;19.40;99.90
28608;DHT22;15802;45.654;13.804;2023-04-28T12:51:21;19.40;99.90
28608;DHT22;15802;45.654;13.804;2023-04-28T12:53:47;19.50;99.90
28608;DHT22;15802;45.654;13.804;2023-04-28T12:56:12;19.70;99.90
28608;DHT22;15802;45.654;13.804;2023-04-28T12:58:38;19.70;99.90
28608;DHT22;15802;45.654;13.804;2023-04-28T13:01:04;19.70;99.90
28608;DHT22;15802;45.654;13.804;2023-04-28T13:03:29;19.60;99.90
28608;DHT22;15802;45.654;13.804;2023-04-28T13:05:55;19.70;99.90
28608;DHT22;15802;45.654;13.804;2023-04-28T13:08:21;19.70;99.90
28608;DHT22;15802;45.654;13.804;2023-04-28T13:10:47;19.70;99.90
28608;DHT22;15802;45.654;13.804;2023-04-28T13:13:12;19.60;99.90
28608;DHT22;15802;45.654;13.804;2023-04-28T13:15:41;19.50;99.90
28608;DHT22;15802;45.654;13.804;2023-04-28T13:18:07;19.30;99.90
28608;DHT22;15802;45.654;13.804;2023-04-28T13:20:32;19.20;99.90
28608;DHT22;15802;45.654;13.804;2023-04-28T13:22:58;19.10;99.90
28608;DHT22;15802;45.654;13.804;2023-04-28T13:25:24;19.10;99.90
28608;DHT22;15802;45.654;13.804;2023-04-28T13:27:51;19.10;99.90
28608;DHT22;15802;45.654;13.804;2023-04-28T13:30:16;19.10;99.90
28608;DHT22;15802;45.654;13.804;2023-04-28T13:32:42;19.20;99.90
28608;DHT22;15802;45.654;13.804;2023-04-28T13:35:08;19.30;99.90
28608;DHT22;15802;45.654;13.804;2023-04-28T13:37:34;19.40;99.90
28608;DHT22;15802;45.654;13.804;2023-04-28T13:40:02;19.50;99.90
28608;DHT22;15802;45.654;13.804;2023-04-28T13:42:28;19.60;99.30
28608;DHT22;15802;45.654;13.804;2023-04-28T13:44:54;19.50;99.90
28608;DHT22;15802;45.654;13.804;2023-04-28T13:47:20;19.20;99.90
28608;DHT22;15802;45.654;13.804;2023-04-28T13:49:46;19.20;98.90
28608;DHT22;15802;45.654;13.804;2023-04-28T13:52:12;19.30;99.10
28608;DHT22;15802;45.654;13.804;2023-04-28T13:54:40;19.40;98.70
28608;DHT22;15802;45.654;13.804;2023-04-28T13:57:06;19.40;98.10
28608;DHT22;15802;45.654;13.804;2023-04-28T13:59:32;19.30;98.00
28608;DHT22;15802;45.654;13.804;2023-04-28T14:01:58;19.40;97.80
28608;DHT22;15802;45.654;13.804;2023-04-28T14:04:23;19.40;97.90
28608;DHT22;15802;45.654;13.804;2023-04-28T14:06:50;19.50;99.10
28608;DHT22;15802;45.654;13.804;2023-04-28T14:09:16;19.70;97.30
28608;DHT22;15802;45.654;13.804;2023-04-28T14:11:42;19.80;96.90
28608;DHT22;15802;45.654;13.804;2023-04-28T14:14:07;19.90;96.90
28608;DHT22;15802;45.654;13.804;2023-04-28T14:16:33;19.70;97.50
28608;DHT22;15802;45.654;13.804;2023-04-28T14:18:59;19.70;97.50
28608;DHT22;15802;45.654;13.804;2023-04-28T14:21:24;19.70;97.90
28608;DHT22;15802;45.654;13.804;2023-04-28T14:23:50;19.60;97.80
28608;DHT22;15802;45.654;13.804;2023-04-28T14:26:16;19.40;98.30
28608;DHT22;15802;45.654;13.804;2023-04-28T14:28:43;19.30;98.60
28608;DHT22;15802;45.654;13.804;2023-04-28T14:31:08;19.30;97.60
28608;DHT22;15802;45.654;13.804;2023-04-28T14:33:34;19.20;98.40
28608;DHT22;15802;45.654;13.804;2023-04-28T14:36:00;19.10;97.80
28608;DHT22;15802;45.654;13.804;2023-04-28T14:38:26;19.10;98.50
28608;DHT22;15802;45.654;13.804;2023-04-28T14:40:53;19.10;98.80
28608;DHT22;15802;45.654;13.804;2023-04-28T14:43:18;19.00;98.90
28608;DHT22;15802;45.654;13.804;2023-04-28T14:45:44;18.90;99.80
28608;DHT22;15802;45.654;13.804;2023-04-28T14:48:10;18.80;99.50
28608;DHT22;15802;45.654;13.804;2023-04-28T14:50:37;18.80;99.70
28608;DHT22;15802;45.654;13.804;2023-04-28T14:53:03;18.70;99.80
28608;DHT22;15802;45.654;13.804;2023-04-28T14:55:31;18.60;99.90
28608;DHT22;15802;45.654;13.804;2023-04-28T14:57:57;18.50;99.90
28608;DHT22;15802;45.654;13.804;2023-04-28T15:00:23;18.30;99.90
28608;DHT22;15802;45.654;13.804;2023-04-28T15:02:49;18.30;99.90
28608;DHT22;15802;45.654;13.804;2023-04-28T15:05:14;18.30;99.90
28608;DHT22;15802;45.654;13.804;2023-04-28T15:07:40;18.30;99.90
28608;DHT22;15802;45.654;13.804;2023-04-28T15:10:06;18.40;99.90
28608;DHT22;15802;45.654;13.804;2023-04-28T15:12:32;18.30;99.90
28608;DHT22;15802;45.654;13.804;2023-04-28T15:14:58;18.30;99.90
28608;DHT22;15802;45.654;13.804;2023-04-28T15:17:24;18.30;99.90
28608;DHT22;15802;45.654;13.804;2023-04-28T15:19:50;18.40;99.90
28608;DHT22;15802;45.654;13.804;2023-04-28T15:22:16;18.30;99.90
28608;DHT22;15802;45.654;13.804;2023-04-28T15:24:42;18.30;99.90
28608;DHT22;15802;45.654;13.804;2023-04-28T15:27:07;18.30;99.90
28608;DHT22;15802;45.654;13.804;2023-04-28T15:29:33;18.20;99.90
28608;DHT22;15802;45.654;13.804;2023-04-28T15:31:59;18.20;99.90
28608;DHT22;15802;45.654;13.804;2023-04-28T15:34:25;18.10;99.90
28608;DHT22;15802;45.654;13.804;2023-04-28T15:36:51;18.10;99.90
28608;DHT22;15802;45.654;13.804;2023-04-28T15:39:18;18.00;99.90
28608;DHT22;15802;45.654;13.804;2023-04-28T15:41:43;18.00;99.90
28608;DHT22;15802;45.654;13.804;2023-04-28T15:44:09;17.80;99.90
28608;DHT22;15802;45.654;13.804;2023-04-28T15:46:35;17.60;99.90
28608;DHT22;15802;45.654;13.804;2023-04-28T15:49:02;17.50;99.90
28608;DHT22;15802;45.654;13.804;2023-04-28T15:51:28;17.50;99.90
28608;DHT22;15802;45.654;13.804;2023-04-28T15:53:53;17.50;99.90
28608;DHT22;15802;45.654;13.804;2023-04-28T15:56:20;17.40;99.90
28608;DHT22;15802;45.654;13.804;2023-04-28T15:58:47;17.40;99.90
28608;DHT22;15802;45.654;13.804;2023-04-28T16:01:13;17.40;99.90
28608;DHT22;15802;45.654;13.804;2023-04-28T16:03:38;17.50;99.90
28608;DHT22;15802;45.654;13.804;2023-04-28T16:06:04;17.50;99.90
28608;DHT22;15802;45.654;13.804;2023-04-28T16:08:30;17.50;99.90
28608;DHT22;15802;45.654;13.804;2023-04-28T16:10:56;17.50;99.90